createdAt,value
2022-10-30T00:04:49.039Z,11.07
2022-10-30T00:09:50.835Z,20.17
2022-10-30T00:14:52.618Z,8.38
2022-10-30T00:19:54.423Z,15.05
2022-10-30T00:24:56.525Z,11.63
2022-10-30T00:29:58.335Z,23.80
2022-10-30T00:35:00.369Z,19.88
2022-10-30T00:40:02.370Z,15.85
2022-10-30T00:45:04.481Z,9.35
2022-10-30T00:50:12.587Z,15.82
2022-10-30T00:55:19.818Z,16.25
2022-10-30T01:00:24.540Z,14.60
2022-10-30T01:05:28.853Z,20.88
2022-10-30T01:10:30.893Z,19.17
2022-10-30T01:15:41.979Z,19.75
2022-10-30T01:21:20.006Z,9.15
2022-10-30T01:26:59.370Z,13.88
2022-10-30T01:32:21.355Z,18.48
2022-10-30T01:37:31.779Z,16.33
2022-10-30T01:42:52.574Z,18.95
2022-10-30T01:48:01.154Z,14.65
2022-10-30T01:53:28.158Z,15.77
2022-10-30T01:58:41.371Z,20.55
2022-10-30T02:03:44.685Z,10.55
2022-10-30T02:08:46.538Z,11.57
2022-10-30T02:13:51.928Z,9.90
2022-10-30T02:18:54.167Z,19.10
2022-10-30T02:23:56.012Z,15.57
2022-10-30T02:28:57.860Z,9.60
2022-10-30T02:33:59.682Z,11.77
2022-10-30T02:39:02.346Z,8.85
2022-10-30T02:44:05.010Z,16.30
2022-10-30T02:49:06.913Z,9.35
2022-10-30T02:54:08.980Z,12.88
2022-10-30T02:59:10.909Z,10.85
2022-10-30T03:04:12.882Z,14.80
2022-10-30T03:09:14.743Z,20.60
2022-10-30T03:14:16.624Z,23.33
2022-10-30T03:19:19.744Z,17.35
2022-10-30T03:24:21.654Z,15.25
2022-10-30T03:29:23.527Z,16.45
2022-10-30T03:34:25.537Z,12.98
2022-10-30T03:39:27.421Z,12.90
2022-10-30T03:44:29.213Z,12.68
2022-10-30T03:49:31.730Z,15.20
2022-10-30T03:54:35.608Z,16.90
2022-10-30T03:59:37.637Z,11.35
2022-10-30T04:05:02.187Z,10.95
2022-10-30T04:10:04.313Z,10.57
2022-10-30T04:15:08.667Z,10.75
2022-10-30T04:20:10.954Z,16.20
2022-10-30T04:25:13.212Z,19.63
2022-10-30T04:30:15.716Z,15.82
2022-10-30T04:35:19.405Z,13.77
2022-10-30T04:40:23.440Z,11.90
2022-10-30T04:45:31.045Z,14.77
2022-10-30T04:50:34.571Z,8.70
2022-10-30T04:55:36.587Z,13.95
2022-10-30T05:00:38.415Z,7.88
2022-10-30T05:05:56.988Z,9.45
2022-10-30T05:10:59.546Z,9.15
2022-10-30T05:16:01.400Z,20.70
2022-10-30T05:21:03.537Z,8.10
2022-10-30T05:26:05.418Z,8.63
2022-10-30T05:31:07.395Z,11.30
2022-10-30T05:36:35.266Z,15.10
2022-10-30T05:41:38.156Z,10.13
2022-10-30T05:46:40.062Z,6.10
2022-10-30T05:51:58.585Z,6.93
2022-10-30T05:57:00.509Z,6.38
2022-10-30T06:02:03.884Z,8.25
2022-10-30T06:07:06.370Z,10.23
2022-10-30T06:12:09.336Z,6.63
2022-10-30T06:17:24.979Z,6.57
2022-10-30T06:22:35.104Z,6.25
2022-10-30T06:27:46.062Z,8.55
2022-10-30T06:32:48.809Z,12.35
2022-10-30T06:37:51.316Z,9.68
2022-10-30T06:42:54.711Z,20.85
2022-10-30T06:48:26.141Z,11.82
2022-10-30T06:53:29.995Z,6.60
2022-10-30T06:58:47.661Z,7.55
2022-10-30T07:04:09.885Z,8.38
2022-10-30T07:09:12.646Z,8.02
2022-10-30T07:14:14.795Z,10.02
2022-10-30T07:19:28.623Z,8.52
2022-10-30T07:24:31.483Z,11.73
2022-10-30T07:29:51.759Z,5.05
2022-10-30T07:34:59.962Z,17.48
2022-10-30T07:40:28.018Z,9.68
2022-10-30T07:45:54.031Z,7.93
2022-10-30T07:51:11.045Z,17.15
2022-10-30T07:56:12.901Z,7.57
2022-10-30T08:01:40.989Z,14.77
2022-10-30T08:06:55.947Z,16.13
2022-10-30T08:11:57.826Z,16.27
2022-10-30T08:16:59.616Z,9.07
2022-10-30T08:22:02.306Z,6.80
2022-10-30T08:27:08.090Z,16.33
2022-10-30T08:32:10.842Z,12.40
2022-10-30T08:42:33.147Z,14.27
2022-10-30T08:47:39.004Z,8.00
2022-10-30T08:52:42.516Z,11.73
2022-10-30T08:57:45.348Z,9.00
2022-10-30T09:02:47.380Z,7.13
2022-10-30T09:08:21.560Z,10.40
2022-10-30T09:13:52.325Z,9.45
2022-10-30T09:18:54.311Z,15.85
2022-10-30T09:23:57.904Z,9.30
2022-10-30T09:29:11.706Z,43.15
2022-10-30T09:34:16.112Z,10.93
2022-10-30T09:39:21.569Z,7.45
2022-10-30T09:45:08.058Z,11.70
2022-10-30T09:50:14.518Z,10.63
2022-10-30T09:55:33.977Z,13.18
2022-10-30T10:01:09.377Z,15.38
2022-10-30T10:06:18.827Z,16.02
2022-10-30T10:11:56.036Z,14.20
2022-10-30T10:17:01.979Z,13.35
2022-10-30T10:22:14.454Z,12.70
2022-10-30T10:27:35.060Z,14.93
2022-10-30T10:32:51.872Z,10.30
2022-10-30T10:38:17.892Z,22.85
2022-10-30T10:43:22.411Z,18.40
2022-10-30T10:49:04.106Z,13.70
2022-10-30T10:54:19.344Z,20.00
2022-10-30T10:59:32.970Z,14.55
2022-10-30T11:04:41.907Z,19.35
2022-10-30T11:09:44.976Z,20.55
2022-10-30T11:14:46.966Z,24.67
2022-10-30T11:19:52.345Z,17.88
2022-10-30T11:24:54.142Z,23.48
2022-10-30T11:29:59.779Z,23.40
2022-10-30T11:35:07.449Z,28.02
2022-10-30T11:40:12.279Z,20.17
2022-10-30T11:45:24.319Z,18.92
2022-10-30T11:50:32.916Z,21.85
2022-10-30T11:55:54.988Z,25.73
2022-10-30T12:01:21.203Z,20.20
2022-10-30T12:06:22.980Z,21.20
2022-10-30T12:11:32.666Z,19.98
2022-10-30T12:16:34.648Z,17.40
2022-10-30T12:21:39.991Z,16.63
2022-10-30T12:26:46.478Z,18.33
2022-10-30T12:32:19.390Z,21.30
2022-10-30T12:37:30.008Z,19.20
2022-10-30T12:42:38.031Z,21.00
2022-10-30T12:47:48.721Z,29.85
2022-10-30T12:53:34.614Z,25.58
2022-10-30T12:58:39.756Z,25.50
2022-10-30T13:04:10.721Z,22.00
2022-10-30T13:09:37.982Z,21.23
2022-10-30T13:14:50.034Z,20.88
2022-10-30T13:19:51.939Z,18.98
2022-10-30T13:25:14.371Z,19.17
2022-10-30T13:30:20.083Z,22.52
2022-10-30T13:35:33.663Z,17.45
2022-10-30T13:40:44.724Z,18.65
2022-10-30T13:46:11.412Z,23.15
2022-10-30T13:51:35.791Z,20.38
2022-10-30T13:56:38.092Z,14.40
2022-10-30T14:01:47.494Z,19.10
2022-10-30T14:07:10.729Z,26.25
2022-10-30T14:12:53.793Z,15.00
2022-10-30T14:18:14.968Z,23.30
2022-10-30T14:23:20.313Z,21.27
2022-10-30T14:28:22.288Z,19.60
2022-10-30T14:33:54.524Z,20.90
2022-10-30T14:39:00.363Z,26.52
2022-10-30T14:44:25.261Z,26.23
2022-10-30T14:49:45.860Z,22.33
2022-10-30T14:55:29.341Z,19.00
2022-10-30T15:00:37.317Z,30.52
2022-10-30T15:05:49.096Z,22.25
2022-10-30T15:11:22.222Z,27.63
2022-10-30T15:16:27.615Z,24.92
2022-10-30T15:21:34.125Z,22.50
2022-10-30T15:26:39.767Z,29.33
2022-10-30T15:31:41.994Z,25.08
2022-10-30T15:36:44.692Z,24.48
2022-10-30T15:41:51.658Z,26.00
2022-10-30T15:46:57.418Z,24.88
2022-10-30T15:52:01.040Z,30.40
2022-10-30T16:02:29.808Z,28.77
2022-10-30T16:07:32.352Z,42.50
2022-10-30T16:12:36.128Z,30.80
2022-10-30T16:17:38.737Z,29.55
2022-10-30T16:22:41.020Z,32.33
2022-10-30T16:27:44.903Z,28.80
2022-10-30T16:32:55.787Z,25.83
2022-10-30T16:37:58.219Z,35.10
2022-10-30T16:43:03.396Z,29.60
2022-10-30T16:53:22.863Z,35.40
2022-10-30T16:58:28.336Z,45.00
2022-10-30T17:03:37.653Z,43.70
2022-10-30T17:08:43.837Z,39.17
2022-10-30T17:13:54.590Z,36.75
2022-10-30T17:19:20.747Z,34.78
2022-10-30T17:24:28.241Z,35.08
2022-10-30T17:29:42.230Z,34.42
2022-10-30T17:34:44.028Z,32.15
2022-10-30T17:39:45.822Z,32.53
2022-10-30T17:44:47.909Z,37.03
2022-10-30T17:49:49.769Z,42.13
2022-10-30T17:54:51.621Z,37.15
2022-10-30T17:59:53.452Z,39.15
2022-10-30T18:04:55.558Z,34.70
2022-10-30T18:09:57.348Z,44.58
2022-10-30T18:14:59.238Z,51.70
2022-10-30T18:20:01.023Z,36.78
2022-10-30T18:25:02.905Z,41.25
2022-10-30T18:30:05.574Z,40.17
2022-10-30T18:35:36.453Z,33.22
2022-10-30T18:45:42.146Z,18.60
2022-10-30T18:50:44.246Z,35.63
2022-10-30T19:01:10.939Z,23.80
2022-10-30T19:06:16.958Z,35.72
2022-10-30T19:11:24.897Z,40.10
2022-10-30T19:16:28.240Z,31.60
2022-10-30T19:21:33.723Z,24.55
2022-10-30T19:26:35.907Z,25.52
2022-10-30T19:31:38.371Z,19.80
2022-10-30T19:36:40.494Z,19.35
2022-10-30T19:41:42.897Z,19.42
2022-10-30T19:46:45.047Z,14.75
2022-10-30T19:51:47.682Z,12.95
2022-10-30T19:56:49.837Z,13.20
2022-10-30T20:01:52.219Z,10.70
2022-10-30T20:06:57.243Z,10.30
2022-10-30T20:12:01.736Z,18.35
2022-10-30T20:17:03.811Z,8.90
2022-10-30T20:22:05.738Z,15.25
2022-10-30T20:27:10.046Z,11.68
2022-10-30T20:32:12.377Z,12.55
2022-10-30T20:37:14.566Z,17.92
2022-10-30T20:42:20.648Z,8.07
2022-10-30T20:47:22.867Z,7.35
2022-10-30T20:52:24.719Z,19.52
2022-10-30T20:57:26.652Z,10.13
2022-10-30T21:02:28.743Z,7.95
2022-10-30T21:07:31.839Z,15.63
2022-10-30T21:12:33.676Z,8.82
2022-10-30T21:17:35.483Z,13.15
2022-10-30T21:22:37.280Z,8.30
2022-10-30T21:27:39.229Z,7.43
2022-10-30T21:32:41.083Z,16.85
2022-10-30T21:37:42.914Z,9.60
2022-10-30T21:42:48.724Z,8.65
2022-10-30T21:47:53.708Z,10.07
2022-10-30T21:52:55.561Z,15.05
2022-10-30T21:57:57.565Z,10.82
2022-10-30T22:02:59.591Z,7.57
2022-10-30T22:08:01.693Z,8.75
2022-10-30T22:13:04.029Z,8.07
2022-10-30T22:18:05.995Z,14.48
2022-10-30T22:23:07.800Z,6.32
2022-10-30T22:28:09.648Z,6.47
2022-10-30T22:33:11.496Z,3.92
2022-10-30T22:38:14.113Z,5.57
2022-10-30T22:48:17.814Z,7.57
2022-10-30T22:53:19.630Z,9.82
2022-10-30T22:58:22.471Z,9.20
2022-10-30T23:03:24.347Z,9.70
2022-10-30T23:08:26.601Z,10.65
2022-10-30T23:13:28.822Z,11.90
2022-10-30T23:18:31.960Z,5.78
2022-10-30T23:23:38.297Z,11.18
2022-10-30T23:28:40.859Z,3.78
2022-10-30T23:33:42.701Z,7.43
2022-10-30T23:38:44.809Z,8.70
2022-10-30T23:43:46.691Z,21.20
2022-10-30T23:48:49.249Z,5.70
2022-10-30T23:53:51.123Z,10.68
2022-10-30T23:58:53.149Z,7.95
